createdAt,value
2019-02-04T00:00:07.430Z,-0.70
2019-02-04T00:02:38.917Z,-0.80
2019-02-04T00:05:10.380Z,-0.80
2019-02-04T00:07:41.772Z,-0.80
2019-02-04T00:10:13.524Z,-0.90
2019-02-04T00:12:44.765Z,-0.90
2019-02-04T00:15:16.234Z,-1.00
2019-02-04T00:17:47.493Z,-1.00
2019-02-04T00:20:18.758Z,-1.00
2019-02-04T00:22:50.000Z,-1.00
2019-02-04T00:25:21.641Z,-1.00
2019-02-04T00:27:53.045Z,-1.10
2019-02-04T00:30:24.613Z,-1.10
2019-02-04T00:32:55.856Z,-1.20
2019-02-04T00:35:27.470Z,-1.10
2019-02-04T00:37:58.720Z,-1.20
2019-02-04T00:40:30.445Z,-1.20
2019-02-04T00:43:01.873Z,-1.10
2019-02-04T00:45:33.073Z,-1.10
2019-02-04T00:48:04.521Z,-1.20
2019-02-04T00:50:35.789Z,-1.20
2019-02-04T00:53:07.496Z,-1.20
2019-02-04T00:55:38.753Z,-1.20
2019-02-04T00:58:09.958Z,-1.20
2019-02-04T01:00:41.405Z,-1.20
2019-02-04T01:03:13.658Z,-1.20
2019-02-04T01:05:45.396Z,-1.20
2019-02-04T01:08:16.834Z,-1.20
2019-02-04T01:10:48.052Z,-1.20
2019-02-04T01:13:20.339Z,-1.20
2019-02-04T01:15:51.640Z,-1.20
2019-02-04T01:18:23.184Z,-1.20
2019-02-04T01:20:54.428Z,-1.20
2019-02-04T01:23:25.681Z,-1.10
2019-02-04T01:25:56.924Z,-1.10
2019-02-04T01:28:28.169Z,-1.10
2019-02-04T01:31:00.596Z,-1.10
2019-02-04T01:33:31.847Z,-1.00
2019-02-04T01:36:03.088Z,-1.00
2019-02-04T01:38:34.349Z,-1.00
2019-02-04T01:41:05.789Z,-1.00
2019-02-04T01:43:37.001Z,-1.00
2019-02-04T01:46:08.242Z,-1.00
2019-02-04T01:48:39.498Z,-1.00
2019-02-04T01:51:10.744Z,-1.00
2019-02-04T01:53:41.981Z,-1.00
2019-02-04T01:56:13.278Z,-0.90
2019-02-04T01:58:44.503Z,-0.90
2019-02-04T03:00:57.851Z,-1.30
2019-02-04T03:03:29.113Z,-1.30
2019-02-04T03:06:00.621Z,-1.30
2019-02-04T03:08:32.138Z,-1.30
2019-02-04T03:11:03.453Z,-1.40
2019-02-04T03:13:34.678Z,-1.40
2019-02-04T03:16:07.032Z,-1.40
2019-02-04T03:18:38.308Z,-1.40
2019-02-04T03:21:09.593Z,-1.50
2019-02-04T03:23:40.849Z,-1.50
2019-02-04T03:26:12.121Z,-1.50
2019-02-04T03:28:43.389Z,-1.50
2019-02-04T03:31:15.364Z,-1.50
2019-02-04T03:33:46.613Z,-1.50
2019-02-04T03:36:17.959Z,-1.60
2019-02-04T03:38:50.221Z,-1.60
2019-02-04T03:41:21.503Z,-1.60
2019-02-04T03:43:52.775Z,-1.60
2019-02-04T03:46:24.281Z,-1.60
2019-02-04T03:48:55.547Z,-1.70
2019-02-04T03:51:26.772Z,-1.70
2019-02-04T03:53:58.034Z,-1.70
2019-02-04T03:56:29.458Z,-1.70
2019-02-04T03:59:00.815Z,-1.70
2019-02-04T04:01:32.173Z,-1.70
2019-02-04T04:04:03.709Z,-1.70
2019-02-04T04:06:35.592Z,-1.70
2019-02-04T04:09:08.474Z,-1.70
2019-02-04T04:11:39.850Z,-1.70
2019-02-04T04:14:11.578Z,-1.70
2019-02-04T04:16:42.899Z,-1.60
2019-02-04T04:19:14.484Z,-1.70
2019-02-04T04:21:46.025Z,-1.60
2019-02-04T04:24:17.471Z,-1.50
2019-02-04T04:26:48.759Z,-1.50
2019-02-04T04:29:20.479Z,-1.40
2019-02-04T04:31:51.984Z,-1.40
2019-02-04T04:34:23.264Z,-1.40
2019-02-04T04:36:54.545Z,-1.40
2019-02-04T04:39:25.782Z,-1.30
2019-02-04T04:41:57.050Z,-1.30
2019-02-04T04:44:28.599Z,-1.30
2019-02-04T04:46:59.816Z,-1.20
2019-02-04T04:49:31.100Z,-1.20
2019-02-04T04:52:02.471Z,-1.20
2019-02-04T04:54:33.732Z,-1.20
2019-02-04T04:57:05.265Z,-1.30
2019-02-04T04:59:36.545Z,-1.20
2019-02-04T05:02:07.868Z,-1.30
2019-02-04T05:04:39.164Z,-1.30
2019-02-04T05:07:10.410Z,-1.30
2019-02-04T05:09:41.980Z,-1.30
2019-02-04T05:12:13.223Z,-1.30
2019-02-04T05:14:45.589Z,-1.40
2019-02-04T05:17:16.885Z,-1.40
2019-02-04T05:19:48.464Z,-1.50
2019-02-04T05:22:19.723Z,-1.50
2019-02-04T05:24:51.169Z,-1.50
2019-02-04T05:27:22.441Z,-1.60
2019-02-04T05:29:53.694Z,-1.60
2019-02-04T05:32:24.921Z,-1.60
2019-02-04T05:34:57.527Z,-1.60
2019-02-04T05:37:28.993Z,-1.70
2019-02-04T05:40:00.450Z,-1.70
2019-02-04T05:42:34.434Z,-1.80
2019-02-04T05:45:04.990Z,-1.80
2019-02-04T05:47:36.327Z,-1.80
2019-02-04T05:50:09.720Z,-1.90
2019-02-04T05:52:40.970Z,-1.90
2019-02-04T05:55:13.517Z,-1.90
2019-02-04T05:57:44.986Z,-2.00
2019-02-04T06:00:33.502Z,-2.00
2019-02-04T06:03:05.005Z,-2.00
2019-02-04T06:05:36.273Z,-2.10
2019-02-04T06:08:08.520Z,-2.10
2019-02-04T06:10:39.898Z,-2.10
2019-02-04T06:13:11.157Z,-2.10
2019-02-04T06:15:42.401Z,-2.10
2019-02-04T06:18:13.838Z,-2.10
2019-02-04T06:20:45.083Z,-2.20
2019-02-04T06:23:16.339Z,-2.20
2019-02-04T06:25:47.579Z,-2.30
2019-02-04T06:28:19.274Z,-2.30
2019-02-04T06:30:50.561Z,-2.40
2019-02-04T06:33:21.993Z,-2.40
2019-02-04T06:35:53.266Z,-2.40
2019-02-04T06:38:24.493Z,-2.40
2019-02-04T06:40:56.039Z,-2.40
2019-02-04T06:43:27.330Z,-2.40
2019-02-04T06:45:58.622Z,-2.40
2019-02-04T06:48:29.906Z,-2.50
2019-02-04T06:51:01.170Z,-2.50
2019-02-04T06:53:32.440Z,-2.50
2019-02-04T06:56:03.710Z,-2.50
2019-02-04T06:58:35.980Z,-2.50
2019-02-04T07:01:07.362Z,-2.50
2019-02-04T07:03:38.657Z,-2.50
2019-02-04T07:06:10.366Z,-2.60
2019-02-04T07:08:42.061Z,-2.60
2019-02-04T07:11:13.383Z,-2.60
2019-02-04T07:13:44.635Z,-2.60
2019-02-04T07:16:15.878Z,-2.50
2019-02-04T07:18:47.200Z,-2.50
2019-02-04T07:21:21.070Z,-2.50
2019-02-04T07:23:51.409Z,-2.50
2019-02-04T07:26:22.717Z,-2.60
2019-02-04T07:28:53.945Z,-2.60
2019-02-04T07:31:26.418Z,-2.50
2019-02-04T07:33:58.133Z,-2.60
2019-02-04T07:36:29.422Z,-2.60
2019-02-04T07:39:00.869Z,-2.50
2019-02-04T07:41:32.159Z,-2.50
2019-02-04T07:44:03.571Z,-2.50
2019-02-04T07:46:35.106Z,-2.50
2019-02-04T07:49:06.565Z,-2.50
2019-02-04T07:51:37.874Z,-2.50
2019-02-04T07:54:09.264Z,-2.50
2019-02-04T07:56:40.573Z,-2.40
2019-02-04T07:59:11.875Z,-2.40
2019-02-04T08:01:43.185Z,-2.40
2019-02-04T08:04:14.522Z,-2.30
2019-02-04T08:06:45.770Z,-2.00
2019-02-04T08:09:17.184Z,-1.80
2019-02-04T08:11:48.505Z,-1.50
2019-02-04T08:14:19.799Z,-1.30
2019-02-04T08:16:51.185Z,-1.10
2019-02-04T08:19:23.356Z,-1.00
2019-02-04T08:21:54.673Z,-0.90
2019-02-04T08:24:26.015Z,-0.80
2019-02-04T08:26:58.267Z,-0.60
2019-02-04T08:29:29.546Z,-0.30
2019-02-04T08:32:00.869Z,0.00
2019-02-04T08:34:32.559Z,0.30
2019-02-04T08:37:03.813Z,0.50
2019-02-04T08:39:35.080Z,0.70
2019-02-04T08:42:06.462Z,0.80
2019-02-04T08:44:37.754Z,0.80
2019-02-04T08:47:08.988Z,0.80
2019-02-04T08:49:40.370Z,0.90
2019-02-04T08:52:11.938Z,0.90
2019-02-04T08:54:43.227Z,1.00
2019-02-04T08:57:14.530Z,0.90
2019-02-04T08:59:45.756Z,1.00
2019-02-04T09:02:17.391Z,1.00
2019-02-04T09:04:49.073Z,0.90
2019-02-04T09:07:20.336Z,0.90
2019-02-04T09:09:51.650Z,0.90
2019-02-04T09:12:22.909Z,0.90
2019-02-04T09:14:54.496Z,1.00
2019-02-04T09:17:25.834Z,1.00
2019-02-04T09:19:57.094Z,1.00
2019-02-04T09:22:28.469Z,1.00
2019-02-04T09:25:00.861Z,1.10
2019-02-04T09:27:32.157Z,1.10
2019-02-04T09:30:03.791Z,1.10
2019-02-04T09:32:36.084Z,1.20
2019-02-04T09:35:14.093Z,1.30
2019-02-04T09:37:44.681Z,1.30
2019-02-04T09:40:19.479Z,1.40
2019-02-04T09:42:51.049Z,1.40
2019-02-04T09:45:26.964Z,1.50
2019-02-04T09:47:55.222Z,1.50
2019-02-04T09:50:27.029Z,1.50
2019-02-04T09:52:59.333Z,1.60
2019-02-04T09:55:33.354Z,1.60
2019-02-04T09:58:05.436Z,1.70
2019-02-04T10:00:37.978Z,1.70
2019-02-04T10:03:09.445Z,1.80
2019-02-04T10:05:40.849Z,1.80
2019-02-04T10:08:12.132Z,1.90
2019-02-04T10:10:43.420Z,1.90
2019-02-04T10:13:14.695Z,2.00
2019-02-04T10:15:46.261Z,2.10
2019-02-04T10:18:18.678Z,2.20
2019-02-04T10:20:49.954Z,2.20
2019-02-04T10:23:21.206Z,2.30
2019-02-04T10:25:52.516Z,2.40
2019-02-04T10:28:23.976Z,2.50
2019-02-04T10:30:56.189Z,2.60
2019-02-04T10:33:27.388Z,2.60
2019-02-04T10:35:58.781Z,2.70
2019-02-04T10:38:30.051Z,2.70
2019-02-04T10:41:01.317Z,2.80
2019-02-04T10:43:32.678Z,2.90
2019-02-04T10:46:04.954Z,2.90
2019-02-04T10:48:36.330Z,3.00
2019-02-04T10:51:10.104Z,3.00
2019-02-04T10:53:41.643Z,3.10
2019-02-04T10:56:13.182Z,3.20
2019-02-04T10:58:45.572Z,3.30
2019-02-04T11:01:17.094Z,3.50
2019-02-04T11:03:48.384Z,3.50
2019-02-04T11:06:19.742Z,3.60
2019-02-04T11:08:51.357Z,3.60
2019-02-04T11:11:22.686Z,3.70
2019-02-04T11:13:54.383Z,3.80
2019-02-04T11:16:25.839Z,3.90
2019-02-04T11:18:57.114Z,3.90
2019-02-04T11:21:28.786Z,4.00
2019-02-04T11:24:00.082Z,4.10
2019-02-04T11:26:31.461Z,4.10
2019-02-04T11:29:02.786Z,4.30
2019-02-04T11:31:34.045Z,4.30
2019-02-04T11:34:05.801Z,4.40
2019-02-04T11:36:37.101Z,4.50
2019-02-04T11:39:09.982Z,4.60
2019-02-04T11:41:41.432Z,4.60
2019-02-04T11:44:12.798Z,4.60
2019-02-04T11:46:44.038Z,4.60
2019-02-04T11:49:15.285Z,4.60
2019-02-04T11:51:46.974Z,4.60
2019-02-04T11:54:18.256Z,4.60
2019-02-04T11:56:49.563Z,4.70
2019-02-04T11:59:20.819Z,4.70
2019-02-04T12:01:52.166Z,4.70
2019-02-04T12:04:23.424Z,4.80
2019-02-04T12:06:54.858Z,4.80
2019-02-04T12:09:26.131Z,5.00
2019-02-04T12:11:57.677Z,5.00
2019-02-04T12:14:28.965Z,5.00
2019-02-04T12:17:00.398Z,5.00
2019-02-04T12:19:31.647Z,5.00
2019-02-04T12:22:04.104Z,5.00
2019-02-04T12:24:35.488Z,5.10
2019-02-04T12:27:06.708Z,5.10
2019-02-04T12:29:38.262Z,5.10
2019-02-04T12:32:09.542Z,5.20
2019-02-04T12:34:40.809Z,5.30
2019-02-04T12:37:12.465Z,5.40
2019-02-04T12:39:43.888Z,5.40
2019-02-04T12:42:15.232Z,5.40
2019-02-04T12:44:46.489Z,5.40
2019-02-04T12:47:18.919Z,5.50
2019-02-04T12:49:50.487Z,5.60
2019-02-04T12:52:21.708Z,5.50
2019-02-04T12:54:52.966Z,5.50
2019-02-04T12:57:24.229Z,5.60
2019-02-04T12:59:56.337Z,5.70
2019-02-04T13:02:27.576Z,5.80
2019-02-04T13:04:58.968Z,5.80
2019-02-04T13:07:30.230Z,5.80
2019-02-04T13:10:01.450Z,5.80
2019-02-04T13:12:33.717Z,5.80
2019-02-04T13:15:05.845Z,5.80
2019-02-04T13:17:38.105Z,5.80
2019-02-04T13:20:10.357Z,5.90
2019-02-04T13:22:41.708Z,5.90
2019-02-04T13:25:15.588Z,6.00
2019-02-04T13:27:47.049Z,6.10
2019-02-04T13:30:20.012Z,6.00
2019-02-04T13:32:51.406Z,6.00
2019-02-04T13:35:22.861Z,6.10
2019-02-04T13:37:54.427Z,6.10
2019-02-04T13:40:28.929Z,6.10
2019-02-04T13:43:00.570Z,6.20
2019-02-04T13:45:32.138Z,6.30
2019-02-04T13:48:03.698Z,6.30
2019-02-04T13:50:35.369Z,6.30
2019-02-04T13:53:06.949Z,6.20
2019-02-04T13:55:38.926Z,6.30
2019-02-04T13:58:10.845Z,6.30
2019-02-04T14:00:47.604Z,6.30
2019-02-04T14:03:24.198Z,6.30
2019-02-04T14:05:59.639Z,6.40
2019-02-04T14:08:33.342Z,6.30
2019-02-04T14:11:06.987Z,6.40
2019-02-04T14:13:44.786Z,6.30
2019-02-04T14:16:17.163Z,6.30
2019-02-04T14:19:03.558Z,6.30
2019-02-04T14:21:41.642Z,6.30
2019-02-04T14:24:15.141Z,6.30
2019-02-04T14:26:53.318Z,6.30
2019-02-04T14:29:34.445Z,6.30
2019-02-04T14:32:19.409Z,6.30
2019-02-04T14:34:54.675Z,6.20
2019-02-04T14:37:41.099Z,6.30
2019-02-04T14:40:20.489Z,6.30
2019-02-04T14:43:04.885Z,6.20
2019-02-04T14:46:03.026Z,6.10
2019-02-04T14:49:19.315Z,6.00
2019-02-04T14:52:24.155Z,5.90
2019-02-04T14:55:58.780Z,5.80
2019-02-04T14:58:47.740Z,5.70
2019-02-04T15:02:07.217Z,5.70
2019-02-04T15:05:45.431Z,5.60
2019-02-04T15:09:11.256Z,5.60
2019-02-04T15:12:23.613Z,5.50
2019-02-04T15:15:31.200Z,5.40
2019-02-04T15:18:54.121Z,5.30
2019-02-04T15:22:10.928Z,5.30
2019-02-04T15:25:27.031Z,5.20
2019-02-04T15:28:29.715Z,5.10
2019-02-04T15:31:50.426Z,5.10
2019-02-04T15:35:20.020Z,5.00
2019-02-04T15:38:05.935Z,5.00
2019-02-04T15:41:04.700Z,4.90
2019-02-04T15:44:10.381Z,4.90
2019-02-04T15:47:15.724Z,4.80
2019-02-04T15:50:25.368Z,4.80
2019-02-04T15:53:17.355Z,4.70
2019-02-04T15:56:00.015Z,4.70
2019-02-04T15:58:37.193Z,4.60
2019-02-04T16:01:14.563Z,4.60
2019-02-04T16:03:50.433Z,4.60
2019-02-04T16:06:32.875Z,4.50
2019-02-04T16:09:08.381Z,4.50
2019-02-04T16:11:54.635Z,4.40
2019-02-04T16:14:43.846Z,4.40
2019-02-04T16:17:17.958Z,4.30
2019-02-04T16:20:08.352Z,4.20
2019-02-04T16:22:57.411Z,4.10
2019-02-04T16:28:02.155Z,3.90
2019-02-04T16:30:36.572Z,3.80
2019-02-04T16:33:13.654Z,3.80
2019-02-04T16:35:47.663Z,3.80
2019-02-04T16:38:27.818Z,3.70
2019-02-04T16:41:04.283Z,3.60
2019-02-04T16:43:46.794Z,3.50
2019-02-04T16:46:26.336Z,3.40
2019-02-04T16:49:08.635Z,3.30
2019-02-04T16:51:54.529Z,3.20
2019-02-04T16:54:35.904Z,3.10
2019-02-04T16:57:18.927Z,3.10
2019-02-04T17:00:04.004Z,3.00
2019-02-04T17:02:44.565Z,2.90
2019-02-04T17:05:27.179Z,2.80
2019-02-04T17:08:11.223Z,2.70
2019-02-04T17:10:49.431Z,2.70
2019-02-04T17:13:29.421Z,2.70
2019-02-04T17:16:05.849Z,2.60
2019-02-04T17:18:46.256Z,2.60
2019-02-04T17:21:31.413Z,2.50
2019-02-04T17:24:13.565Z,2.50
2019-02-04T17:26:49.235Z,2.50
2019-02-04T17:29:38.601Z,2.50
2019-02-04T17:32:18.634Z,2.60
2019-02-04T17:35:01.548Z,2.60
2019-02-04T17:37:49.405Z,2.60
2019-02-04T17:40:30.064Z,2.60
2019-02-04T17:43:20.698Z,2.60
2019-02-04T17:45:58.898Z,2.60
2019-02-04T17:48:36.356Z,2.60
2019-02-04T17:51:12.127Z,2.50
2019-02-04T17:54:01.280Z,2.50
2019-02-04T17:56:42.164Z,2.40
2019-02-04T17:59:23.027Z,2.40
2019-02-04T18:02:00.456Z,2.40
2019-02-04T18:04:48.329Z,2.40
2019-02-04T18:07:31.349Z,2.50
2019-02-04T18:10:18.405Z,2.40
2019-02-04T18:12:59.176Z,2.30
2019-02-04T18:15:38.517Z,2.30
2019-02-04T18:18:15.790Z,2.30
2019-02-04T18:20:55.042Z,2.20
2019-02-04T18:26:23.113Z,2.20
2019-02-04T18:29:02.747Z,2.20
2019-02-04T18:31:50.391Z,2.10
2019-02-04T18:34:27.560Z,2.10
2019-02-04T18:37:07.572Z,2.10
2019-02-04T18:39:47.541Z,2.00
2019-02-04T18:42:24.552Z,1.90
2019-02-04T18:45:11.476Z,1.80
2019-02-04T18:47:50.892Z,1.80
2019-02-04T18:50:29.371Z,1.80
2019-02-04T18:53:21.410Z,1.70
2019-02-04T18:55:58.187Z,1.70
2019-02-04T18:59:02.692Z,1.70
2019-02-04T19:01:37.753Z,1.60
2019-02-04T19:04:11.694Z,1.60
2019-02-04T19:06:49.392Z,1.60
2019-02-04T19:09:31.786Z,1.60
2019-02-04T19:12:05.592Z,1.50
2019-02-04T19:14:47.895Z,1.50
2019-02-04T19:17:26.411Z,1.50
2019-02-04T19:20:09.787Z,1.50
2019-02-04T19:22:43.763Z,1.50
2019-02-04T19:25:32.915Z,1.40
2019-02-04T19:28:12.985Z,1.40
2019-02-04T19:31:13.821Z,1.40
2019-02-04T19:33:52.243Z,1.30
2019-02-04T19:36:30.367Z,1.30
2019-02-04T19:39:10.099Z,1.20
2019-02-04T19:41:57.424Z,1.20
2019-02-04T19:44:34.167Z,1.10
2019-02-04T19:47:08.218Z,1.00
2019-02-04T19:49:44.133Z,1.00
2019-02-04T19:52:28.522Z,0.90
2019-02-04T19:55:11.166Z,0.90
2019-02-04T19:57:56.306Z,0.90
2019-02-04T20:00:34.638Z,0.90
2019-02-04T20:03:20.589Z,0.90
2019-02-04T20:05:58.607Z,0.80
2019-02-04T20:08:36.200Z,0.80
2019-02-04T20:11:34.274Z,0.80
2019-02-04T20:14:21.657Z,0.80
2019-02-04T20:17:00.058Z,0.80
2019-02-04T20:19:35.347Z,0.80
2019-02-04T20:22:19.867Z,0.70
2019-02-04T20:25:06.062Z,0.70
2019-02-04T20:27:49.935Z,0.70
2019-02-04T20:30:24.969Z,0.70
2019-02-04T20:33:00.874Z,0.70
2019-02-04T20:35:47.840Z,0.70
2019-02-04T20:38:27.202Z,0.70
2019-02-04T20:41:10.297Z,0.70
2019-02-04T20:43:51.061Z,0.70
2019-02-04T20:46:27.836Z,0.60
2019-02-04T20:49:07.164Z,0.70
2019-02-04T20:51:42.012Z,0.70
2019-02-04T20:54:30.148Z,0.70
2019-02-04T20:57:07.332Z,0.70
2019-02-04T20:59:41.088Z,0.70
2019-02-04T21:02:33.365Z,0.70
2019-02-04T21:05:22.363Z,0.70
2019-02-04T21:08:18.448Z,0.70
2019-02-04T21:11:02.832Z,0.70
2019-02-04T21:13:40.106Z,0.60
2019-02-04T21:16:19.543Z,0.70
2019-02-04T21:19:02.769Z,0.70
2019-02-04T21:21:41.592Z,0.70
2019-02-04T21:24:19.392Z,0.70
2019-02-04T21:26:58.523Z,0.70
2019-02-04T21:29:40.724Z,0.70
2019-02-04T21:32:19.109Z,0.70
2019-02-04T21:35:06.461Z,0.60
2019-02-04T21:37:42.895Z,0.60
2019-02-04T21:40:22.134Z,0.60
2019-02-04T21:43:18.459Z,0.60
2019-02-04T21:45:57.086Z,0.60
2019-02-04T21:48:39.595Z,0.60
2019-02-04T21:51:23.129Z,0.60
2019-02-04T21:53:57.036Z,0.60
2019-02-04T21:56:46.616Z,0.60
2019-02-04T21:59:26.256Z,0.60
2019-02-04T22:02:03.656Z,0.60
2019-02-04T22:04:45.349Z,0.60
2019-02-04T22:07:32.649Z,0.60
2019-02-04T22:10:13.116Z,0.60
2019-02-04T22:12:53.626Z,0.60
2019-02-04T22:15:30.587Z,0.60
2019-02-04T22:18:03.622Z,0.70
2019-02-04T22:20:38.450Z,0.70
2019-02-04T22:23:13.447Z,0.70
2019-02-04T22:25:46.489Z,0.70
2019-02-04T22:28:17.900Z,0.80
2019-02-04T22:30:51.447Z,0.70
2019-02-04T22:33:23.193Z,0.80
2019-02-04T22:35:54.772Z,0.70
2019-02-04T22:38:26.461Z,0.80
2019-02-04T22:40:58.131Z,0.80
2019-02-04T22:43:29.372Z,0.80
2019-02-04T22:46:00.937Z,0.80
2019-02-04T22:48:32.237Z,0.80
2019-02-04T22:51:06.890Z,0.90
2019-02-04T22:53:38.503Z,0.80
2019-02-04T22:56:09.792Z,0.90
2019-02-04T22:58:41.561Z,0.90
2019-02-04T23:01:48.581Z,0.90
2019-02-04T23:04:20.178Z,0.90
2019-02-04T23:06:51.576Z,0.90
2019-02-04T23:09:22.940Z,0.90
2019-02-04T23:11:54.177Z,0.90
2019-02-04T23:14:26.496Z,1.00
2019-02-04T23:16:59.169Z,1.00
2019-02-04T23:19:30.517Z,1.00
2019-02-04T23:22:01.869Z,1.00
2019-02-04T23:24:33.122Z,1.00
2019-02-04T23:27:05.406Z,1.00
2019-02-04T23:29:37.616Z,1.00
2019-02-04T23:32:08.991Z,1.10
2019-02-04T23:34:40.236Z,1.10
2019-02-04T23:37:11.508Z,1.10
2019-02-04T23:39:42.700Z,1.10
2019-02-04T23:42:14.113Z,1.10
2019-02-04T23:44:45.369Z,1.10
2019-02-04T23:47:16.646Z,1.10
2019-02-04T23:49:47.888Z,1.10
2019-02-04T23:52:19.170Z,1.20
2019-02-04T23:54:50.425Z,1.20
2019-02-04T23:57:22.684Z,1.20
2019-02-04T23:59:54.929Z,1.20
